sensor_id;sensor_type;location;lat;lon;timestamp;P1;durP1;ratioP1;P2;durP2;ratioP2
24485;SDS011;13449;49.374;8.584;2023-02-24T00:01:25;32.70;;;13.90;;
24485;SDS011;13449;49.374;8.584;2023-02-24T00:03:54;26.23;;;11.82;;
24485;SDS011;13449;49.374;8.584;2023-02-24T00:06:41;30.77;;;13.23;;
24485;SDS011;13449;49.374;8.584;2023-02-24T00:12:10;33.92;;;13.32;;
24485;SDS011;13449;49.374;8.584;2023-02-24T00:14:53;30.25;;;13.70;;
24485;SDS011;13449;49.374;8.584;2023-02-24T00:17:26;30.33;;;12.50;;
24485;SDS011;13449;49.374;8.584;2023-02-24T00:19:58;33.67;;;14.02;;
24485;SDS011;13449;49.374;8.584;2023-02-24T00:22:33;33.58;;;13.82;;
24485;SDS011;13449;49.374;8.584;2023-02-24T00:24:59;32.20;;;13.77;;
24485;SDS011;13449;49.374;8.584;2023-02-24T00:27:29;38.13;;;15.43;;
24485;SDS011;13449;49.374;8.584;2023-02-24T00:30:17;35.75;;;14.50;;
24485;SDS011;13449;49.374;8.584;2023-02-24T00:33:01;34.20;;;14.48;;
24485;SDS011;13449;49.374;8.584;2023-02-24T00:35:33;38.05;;;15.02;;
24485;SDS011;13449;49.374;8.584;2023-02-24T00:38:02;35.80;;;14.65;;
24485;SDS011;13449;49.374;8.584;2023-02-24T00:40:31;37.72;;;15.45;;
24485;SDS011;13449;49.374;8.584;2023-02-24T00:43:11;31.88;;;13.52;;
24485;SDS011;13449;49.374;8.584;2023-02-24T00:45:48;36.03;;;15.52;;
24485;SDS011;13449;49.374;8.584;2023-02-24T00:48:21;36.75;;;14.63;;
24485;SDS011;13449;49.374;8.584;2023-02-24T00:50:54;34.45;;;14.27;;
24485;SDS011;13449;49.374;8.584;2023-02-24T00:53:26;37.90;;;15.13;;
24485;SDS011;13449;49.374;8.584;2023-02-24T00:56:06;35.75;;;14.30;;
24485;SDS011;13449;49.374;8.584;2023-02-24T00:58:43;40.92;;;15.30;;
24485;SDS011;13449;49.374;8.584;2023-02-24T01:01:20;37.65;;;14.27;;
24485;SDS011;13449;49.374;8.584;2023-02-24T01:03:55;38.83;;;15.80;;
24485;SDS011;13449;49.374;8.584;2023-02-24T01:06:26;35.13;;;14.23;;
24485;SDS011;13449;49.374;8.584;2023-02-24T01:08:56;37.50;;;15.25;;
24485;SDS011;13449;49.374;8.584;2023-02-24T01:11:34;37.67;;;15.48;;
24485;SDS011;13449;49.374;8.584;2023-02-24T01:14:30;41.78;;;14.90;;
24485;SDS011;13449;49.374;8.584;2023-02-24T01:17:05;36.58;;;14.75;;
24485;SDS011;13449;49.374;8.584;2023-02-24T01:19:47;45.60;;;15.23;;
24485;SDS011;13449;49.374;8.584;2023-02-24T01:22:25;41.20;;;15.35;;
24485;SDS011;13449;49.374;8.584;2023-02-24T01:24:57;46.85;;;15.13;;
24485;SDS011;13449;49.374;8.584;2023-02-24T01:27:58;36.58;;;13.98;;
24485;SDS011;13449;49.374;8.584;2023-02-24T01:30:25;42.35;;;15.85;;
24485;SDS011;13449;49.374;8.584;2023-02-24T01:32:55;44.63;;;14.57;;
24485;SDS011;13449;49.374;8.584;2023-02-24T01:35:24;48.88;;;16.13;;
24485;SDS011;13449;49.374;8.584;2023-02-24T01:38:01;41.75;;;16.17;;
24485;SDS011;13449;49.374;8.584;2023-02-24T01:40:37;41.47;;;15.57;;
24485;SDS011;13449;49.374;8.584;2023-02-24T01:43:16;39.00;;;14.90;;
24485;SDS011;13449;49.374;8.584;2023-02-24T01:46:03;41.17;;;13.82;;
24485;SDS011;13449;49.374;8.584;2023-02-24T01:48:33;44.28;;;16.13;;
24485;SDS011;13449;49.374;8.584;2023-02-24T01:50:59;41.22;;;15.35;;
24485;SDS011;13449;49.374;8.584;2023-02-24T01:53:28;40.65;;;14.57;;
24485;SDS011;13449;49.374;8.584;2023-02-24T01:55:57;40.63;;;15.48;;
24485;SDS011;13449;49.374;8.584;2023-02-24T01:58:27;47.22;;;16.58;;
24485;SDS011;13449;49.374;8.584;2023-02-24T02:01:06;47.60;;;15.30;;
24485;SDS011;13449;49.374;8.584;2023-02-24T02:03:40;44.78;;;15.13;;
24485;SDS011;13449;49.374;8.584;2023-02-24T02:06:14;46.03;;;14.68;;
24485;SDS011;13449;49.374;8.584;2023-02-24T02:08:44;39.85;;;14.65;;
24485;SDS011;13449;49.374;8.584;2023-02-24T02:11:21;40.75;;;15.07;;
24485;SDS011;13449;49.374;8.584;2023-02-24T02:14:03;43.05;;;14.75;;
24485;SDS011;13449;49.374;8.584;2023-02-24T02:33:37;47.65;;;15.27;;
24485;SDS011;13449;49.374;8.584;2023-02-24T02:50:41;53.25;;;17.63;;
24485;SDS011;13449;49.374;8.584;2023-02-24T02:56:41;44.15;;;15.57;;
24485;SDS011;13449;49.374;8.584;2023-02-24T02:59:44;41.83;;;14.75;;
24485;SDS011;13449;49.374;8.584;2023-02-24T03:02:48;49.67;;;15.07;;
24485;SDS011;13449;49.374;8.584;2023-02-24T03:05:32;49.33;;;15.68;;
24485;SDS011;13449;49.374;8.584;2023-02-24T03:08:22;46.75;;;15.60;;
24485;SDS011;13449;49.374;8.584;2023-02-24T03:10:53;36.25;;;14.25;;
24485;SDS011;13449;49.374;8.584;2023-02-24T03:13:31;51.67;;;16.77;;
24485;SDS011;13449;49.374;8.584;2023-02-24T03:16:09;48.78;;;14.30;;
24485;SDS011;13449;49.374;8.584;2023-02-24T03:18:57;52.95;;;16.75;;
24485;SDS011;13449;49.374;8.584;2023-02-24T03:24:01;47.22;;;15.60;;
24485;SDS011;13449;49.374;8.584;2023-02-24T03:26:39;51.55;;;17.08;;
24485;SDS011;13449;49.374;8.584;2023-02-24T03:36:04;52.35;;;15.80;;
24485;SDS011;13449;49.374;8.584;2023-02-24T03:38:40;54.25;;;16.95;;
24485;SDS011;13449;49.374;8.584;2023-02-24T03:41:19;52.10;;;17.40;;
24485;SDS011;13449;49.374;8.584;2023-02-24T03:43:56;54.13;;;16.08;;
24485;SDS011;13449;49.374;8.584;2023-02-24T03:46:32;50.60;;;16.85;;
24485;SDS011;13449;49.374;8.584;2023-02-24T03:49:08;49.40;;;15.93;;
24485;SDS011;13449;49.374;8.584;2023-02-24T03:51:44;52.72;;;16.85;;
24485;SDS011;13449;49.374;8.584;2023-02-24T03:57:47;46.33;;;14.57;;
24485;SDS011;13449;49.374;8.584;2023-02-24T04:06:41;49.60;;;14.90;;
24485;SDS011;13449;49.374;8.584;2023-02-24T04:12:05;52.45;;;16.40;;
24485;SDS011;13449;49.374;8.584;2023-02-24T04:14:51;40.80;;;14.65;;
24485;SDS011;13449;49.374;8.584;2023-02-24T04:17:59;50.85;;;14.30;;
24485;SDS011;13449;49.374;8.584;2023-02-24T04:20:41;49.30;;;14.80;;
24485;SDS011;13449;49.374;8.584;2023-02-24T04:23:45;47.38;;;14.48;;
24485;SDS011;13449;49.374;8.584;2023-02-24T04:26:13;42.13;;;14.55;;
24485;SDS011;13449;49.374;8.584;2023-02-24T04:28:45;55.65;;;16.13;;
24485;SDS011;13449;49.374;8.584;2023-02-24T04:31:24;50.53;;;15.20;;
24485;SDS011;13449;49.374;8.584;2023-02-24T04:34:29;49.10;;;16.13;;
24485;SDS011;13449;49.374;8.584;2023-02-24T04:37:16;45.70;;;13.60;;
24485;SDS011;13449;49.374;8.584;2023-02-24T04:40:03;46.25;;;14.88;;
24485;SDS011;13449;49.374;8.584;2023-02-24T04:42:55;50.25;;;16.13;;
24485;SDS011;13449;49.374;8.584;2023-02-24T04:45:36;45.47;;;14.10;;
24485;SDS011;13449;49.374;8.584;2023-02-24T04:48:07;45.35;;;14.35;;
24485;SDS011;13449;49.374;8.584;2023-02-24T04:50:54;49.63;;;15.82;;
24485;SDS011;13449;49.374;8.584;2023-02-24T04:53:39;40.33;;;13.23;;
24485;SDS011;13449;49.374;8.584;2023-02-24T04:56:21;52.13;;;14.02;;
24485;SDS011;13449;49.374;8.584;2023-02-24T04:59:03;48.22;;;14.75;;
24485;SDS011;13449;49.374;8.584;2023-02-24T05:01:49;35.70;;;11.63;;
24485;SDS011;13449;49.374;8.584;2023-02-24T05:04:42;48.28;;;14.00;;
24485;SDS011;13449;49.374;8.584;2023-02-24T05:07:18;41.53;;;14.38;;
24485;SDS011;13449;49.374;8.584;2023-02-24T05:09:50;44.97;;;14.63;;
24485;SDS011;13449;49.374;8.584;2023-02-24T05:12:23;61.67;;;16.63;;
24485;SDS011;13449;49.374;8.584;2023-02-24T05:14:57;45.67;;;13.43;;
24485;SDS011;13449;49.374;8.584;2023-02-24T05:17:49;47.40;;;15.40;;
24485;SDS011;13449;49.374;8.584;2023-02-24T05:20:21;44.80;;;12.13;;
24485;SDS011;13449;49.374;8.584;2023-02-24T05:23:39;50.63;;;16.35;;
24485;SDS011;13449;49.374;8.584;2023-02-24T05:26:29;43.67;;;14.88;;
24485;SDS011;13449;49.374;8.584;2023-02-24T05:28:57;53.20;;;14.27;;
24485;SDS011;13449;49.374;8.584;2023-02-24T05:31:41;50.42;;;14.32;;
24485;SDS011;13449;49.374;8.584;2023-02-24T05:34:19;54.65;;;16.08;;
24485;SDS011;13449;49.374;8.584;2023-02-24T05:36:54;63.30;;;17.17;;
24485;SDS011;13449;49.374;8.584;2023-02-24T05:39:48;46.55;;;14.18;;
24485;SDS011;13449;49.374;8.584;2023-02-24T05:42:55;42.88;;;13.05;;
24485;SDS011;13449;49.374;8.584;2023-02-24T05:45:46;30.50;;;11.13;;
24485;SDS011;13449;49.374;8.584;2023-02-24T05:48:15;49.63;;;14.57;;
24485;SDS011;13449;49.374;8.584;2023-02-24T05:50:49;45.15;;;13.50;;
24485;SDS011;13449;49.374;8.584;2023-02-24T05:53:23;39.72;;;12.98;;
24485;SDS011;13449;49.374;8.584;2023-02-24T05:56:11;53.90;;;14.63;;
24485;SDS011;13449;49.374;8.584;2023-02-24T05:58:44;47.00;;;13.30;;
24485;SDS011;13449;49.374;8.584;2023-02-24T06:01:24;54.42;;;15.15;;
24485;SDS011;13449;49.374;8.584;2023-02-24T06:04:09;50.70;;;13.90;;
24485;SDS011;13449;49.374;8.584;2023-02-24T06:07:09;56.45;;;15.93;;
24485;SDS011;13449;49.374;8.584;2023-02-24T06:10:07;41.92;;;12.30;;
24485;SDS011;13449;49.374;8.584;2023-02-24T06:12:45;44.30;;;13.55;;
24485;SDS011;13449;49.374;8.584;2023-02-24T06:15:29;46.13;;;13.13;;
24485;SDS011;13449;49.374;8.584;2023-02-24T06:18:04;54.63;;;14.95;;
24485;SDS011;13449;49.374;8.584;2023-02-24T06:20:38;47.40;;;14.60;;
24485;SDS011;13449;49.374;8.584;2023-02-24T06:23:21;53.63;;;15.52;;
24485;SDS011;13449;49.374;8.584;2023-02-24T06:26:05;47.22;;;14.48;;
24485;SDS011;13449;49.374;8.584;2023-02-24T06:28:45;45.50;;;14.45;;
24485;SDS011;13449;49.374;8.584;2023-02-24T06:31:15;44.80;;;14.57;;
24485;SDS011;13449;49.374;8.584;2023-02-24T06:33:52;51.97;;;15.23;;
24485;SDS011;13449;49.374;8.584;2023-02-24T06:36:32;54.58;;;16.30;;
24485;SDS011;13449;49.374;8.584;2023-02-24T06:39:18;44.20;;;13.05;;
24485;SDS011;13449;49.374;8.584;2023-02-24T06:41:48;43.97;;;14.25;;
24485;SDS011;13449;49.374;8.584;2023-02-24T06:44:36;45.03;;;14.25;;
24485;SDS011;13449;49.374;8.584;2023-02-24T06:47:26;51.92;;;14.13;;
24485;SDS011;13449;49.374;8.584;2023-02-24T06:50:33;60.05;;;16.42;;
24485;SDS011;13449;49.374;8.584;2023-02-24T06:53:10;47.55;;;13.68;;
24485;SDS011;13449;49.374;8.584;2023-02-24T06:56:03;60.50;;;16.50;;
24485;SDS011;13449;49.374;8.584;2023-02-24T06:58:32;52.20;;;16.42;;
24485;SDS011;13449;49.374;8.584;2023-02-24T07:01:03;43.92;;;13.40;;
24485;SDS011;13449;49.374;8.584;2023-02-24T07:03:41;43.15;;;13.45;;
24485;SDS011;13449;49.374;8.584;2023-02-24T07:06:15;43.83;;;13.75;;
24485;SDS011;13449;49.374;8.584;2023-02-24T07:08:53;50.15;;;15.10;;
24485;SDS011;13449;49.374;8.584;2023-02-24T07:11:37;55.17;;;14.52;;
24485;SDS011;13449;49.374;8.584;2023-02-24T07:14:14;51.47;;;14.95;;
24485;SDS011;13449;49.374;8.584;2023-02-24T07:17:11;54.10;;;15.30;;
24485;SDS011;13449;49.374;8.584;2023-02-24T07:19:54;46.50;;;15.10;;
24485;SDS011;13449;49.374;8.584;2023-02-24T07:22:29;40.67;;;12.93;;
24485;SDS011;13449;49.374;8.584;2023-02-24T07:25:05;44.50;;;14.25;;
24485;SDS011;13449;49.374;8.584;2023-02-24T07:27:59;51.53;;;14.98;;
24485;SDS011;13449;49.374;8.584;2023-02-24T07:30:44;46.35;;;14.07;;
24485;SDS011;13449;49.374;8.584;2023-02-24T07:33:19;55.10;;;15.20;;
24485;SDS011;13449;49.374;8.584;2023-02-24T07:36:02;48.58;;;15.38;;
24485;SDS011;13449;49.374;8.584;2023-02-24T07:38:37;44.72;;;13.98;;
24485;SDS011;13449;49.374;8.584;2023-02-24T07:41:05;47.78;;;14.93;;
24485;SDS011;13449;49.374;8.584;2023-02-24T07:43:38;48.53;;;15.38;;
24485;SDS011;13449;49.374;8.584;2023-02-24T07:46:09;42.25;;;12.15;;
24485;SDS011;13449;49.374;8.584;2023-02-24T07:48:41;58.80;;;15.77;;
24485;SDS011;13449;49.374;8.584;2023-02-24T07:51:08;48.95;;;14.55;;
24485;SDS011;13449;49.374;8.584;2023-02-24T07:53:40;39.25;;;13.50;;
24485;SDS011;13449;49.374;8.584;2023-02-24T07:56:10;51.58;;;15.50;;
24485;SDS011;13449;49.374;8.584;2023-02-24T07:58:44;54.28;;;16.15;;
24485;SDS011;13449;49.374;8.584;2023-02-24T08:01:17;42.67;;;13.82;;
24485;SDS011;13449;49.374;8.584;2023-02-24T08:03:59;43.40;;;15.38;;
24485;SDS011;13449;49.374;8.584;2023-02-24T08:06:36;47.15;;;15.55;;
24485;SDS011;13449;49.374;8.584;2023-02-24T08:09:13;48.53;;;15.88;;
24485;SDS011;13449;49.374;8.584;2023-02-24T08:11:52;59.60;;;15.82;;
24485;SDS011;13449;49.374;8.584;2023-02-24T08:14:29;53.67;;;15.60;;
24485;SDS011;13449;49.374;8.584;2023-02-24T08:17:00;48.33;;;16.45;;
24485;SDS011;13449;49.374;8.584;2023-02-24T08:19:31;48.45;;;16.55;;
24485;SDS011;13449;49.374;8.584;2023-02-24T08:21:59;52.03;;;16.48;;
24485;SDS011;13449;49.374;8.584;2023-02-24T08:24:45;52.58;;;15.38;;
24485;SDS011;13449;49.374;8.584;2023-02-24T08:27:19;59.10;;;17.25;;
24485;SDS011;13449;49.374;8.584;2023-02-24T08:29:48;51.00;;;14.88;;
24485;SDS011;13449;49.374;8.584;2023-02-24T08:32:35;51.33;;;16.30;;
24485;SDS011;13449;49.374;8.584;2023-02-24T08:35:13;57.00;;;16.75;;
24485;SDS011;13449;49.374;8.584;2023-02-24T08:37:43;48.22;;;17.85;;
24485;SDS011;13449;49.374;8.584;2023-02-24T08:40:14;56.63;;;16.98;;
24485;SDS011;13449;49.374;8.584;2023-02-24T08:43:16;47.55;;;15.93;;
24485;SDS011;13449;49.374;8.584;2023-02-24T08:45:54;53.28;;;16.08;;
24485;SDS011;13449;49.374;8.584;2023-02-24T08:48:25;44.65;;;14.40;;
24485;SDS011;13449;49.374;8.584;2023-02-24T08:53:35;67.85;;;17.40;;
24485;SDS011;13449;49.374;8.584;2023-02-24T08:56:06;53.90;;;16.73;;
24485;SDS011;13449;49.374;8.584;2023-02-24T08:58:40;48.35;;;16.52;;
24485;SDS011;13449;49.374;8.584;2023-02-24T09:01:18;51.97;;;15.63;;
24485;SDS011;13449;49.374;8.584;2023-02-24T09:03:51;45.38;;;14.73;;
24485;SDS011;13449;49.374;8.584;2023-02-24T09:06:21;48.95;;;15.38;;
24485;SDS011;13449;49.374;8.584;2023-02-24T09:08:52;44.63;;;14.63;;
24485;SDS011;13449;49.374;8.584;2023-02-24T09:11:40;51.40;;;15.98;;
24485;SDS011;13449;49.374;8.584;2023-02-24T09:14:10;49.75;;;16.05;;
24485;SDS011;13449;49.374;8.584;2023-02-24T09:16:52;49.63;;;14.75;;
24485;SDS011;13449;49.374;8.584;2023-02-24T09:19:31;51.17;;;18.05;;
24485;SDS011;13449;49.374;8.584;2023-02-24T09:22:18;51.42;;;17.52;;
24485;SDS011;13449;49.374;8.584;2023-02-24T09:25:08;65.78;;;20.55;;
24485;SDS011;13449;49.374;8.584;2023-02-24T09:28:18;46.55;;;16.45;;
24485;SDS011;13449;49.374;8.584;2023-02-24T09:30:54;48.70;;;16.50;;
24485;SDS011;13449;49.374;8.584;2023-02-24T09:38:39;51.97;;;18.23;;
24485;SDS011;13449;49.374;8.584;2023-02-24T09:41:40;50.63;;;17.38;;
24485;SDS011;13449;49.374;8.584;2023-02-24T09:49:49;44.88;;;15.75;;
24485;SDS011;13449;49.374;8.584;2023-02-24T09:52:28;48.88;;;16.95;;
24485;SDS011;13449;49.374;8.584;2023-02-24T09:55:13;56.38;;;19.33;;
24485;SDS011;13449;49.374;8.584;2023-02-24T09:57:53;46.57;;;16.90;;
24485;SDS011;13449;49.374;8.584;2023-02-24T10:03:49;48.92;;;16.65;;
24485;SDS011;13449;49.374;8.584;2023-02-24T10:06:45;46.42;;;17.33;;
24485;SDS011;13449;49.374;8.584;2023-02-24T10:09:29;49.28;;;16.75;;
24485;SDS011;13449;49.374;8.584;2023-02-24T10:12:04;47.55;;;17.40;;
24485;SDS011;13449;49.374;8.584;2023-02-24T10:17:55;44.95;;;17.40;;
24485;SDS011;13449;49.374;8.584;2023-02-24T10:20:24;47.60;;;17.67;;
24485;SDS011;13449;49.374;8.584;2023-02-24T10:25:38;59.33;;;18.02;;
24485;SDS011;13449;49.374;8.584;2023-02-24T10:31:33;48.17;;;19.05;;
24485;SDS011;13449;49.374;8.584;2023-02-24T10:34:13;48.05;;;17.65;;
24485;SDS011;13449;49.374;8.584;2023-02-24T10:36:47;51.65;;;17.77;;
24485;SDS011;13449;49.374;8.584;2023-02-24T10:41:50;45.72;;;18.23;;
24485;SDS011;13449;49.374;8.584;2023-02-24T10:44:42;50.80;;;18.38;;
24485;SDS011;13449;49.374;8.584;2023-02-24T10:47:28;39.75;;;16.17;;
24485;SDS011;13449;49.374;8.584;2023-02-24T10:50:02;48.05;;;17.80;;
24485;SDS011;13449;49.374;8.584;2023-02-24T10:52:38;56.35;;;18.75;;
24485;SDS011;13449;49.374;8.584;2023-02-24T10:55:25;51.38;;;17.33;;
24485;SDS011;13449;49.374;8.584;2023-02-24T11:00:53;44.80;;;14.63;;
24485;SDS011;13449;49.374;8.584;2023-02-24T11:03:47;36.58;;;13.68;;
24485;SDS011;13449;49.374;8.584;2023-02-24T11:12:10;44.30;;;17.77;;
24485;SDS011;13449;49.374;8.584;2023-02-24T11:14:57;45.47;;;16.48;;
24485;SDS011;13449;49.374;8.584;2023-02-24T11:17:51;50.90;;;19.50;;
24485;SDS011;13449;49.374;8.584;2023-02-24T11:20:29;43.42;;;16.77;;
24485;SDS011;13449;49.374;8.584;2023-02-24T11:23:25;36.58;;;16.13;;
24485;SDS011;13449;49.374;8.584;2023-02-24T11:25:58;44.10;;;17.15;;
24485;SDS011;13449;49.374;8.584;2023-02-24T11:31:33;42.30;;;15.75;;
24485;SDS011;13449;49.374;8.584;2023-02-24T11:36:48;40.22;;;16.70;;
24485;SDS011;13449;49.374;8.584;2023-02-24T11:48:09;41.22;;;17.40;;
24485;SDS011;13449;49.374;8.584;2023-02-24T11:53:55;48.40;;;17.20;;
24485;SDS011;13449;49.374;8.584;2023-02-24T11:56:31;40.90;;;17.75;;
24485;SDS011;13449;49.374;8.584;2023-02-24T11:59:09;37.67;;;15.60;;
24485;SDS011;13449;49.374;8.584;2023-02-24T12:04:37;45.10;;;16.40;;
24485;SDS011;13449;49.374;8.584;2023-02-24T12:09:45;34.53;;;13.25;;
24485;SDS011;13449;49.374;8.584;2023-02-24T12:12:26;42.58;;;16.17;;
24485;SDS011;13449;49.374;8.584;2023-02-24T12:14:58;35.08;;;14.85;;
24485;SDS011;13449;49.374;8.584;2023-02-24T12:17:30;38.58;;;15.80;;
24485;SDS011;13449;49.374;8.584;2023-02-24T12:20:03;41.35;;;16.25;;
24485;SDS011;13449;49.374;8.584;2023-02-24T12:22:42;39.53;;;15.75;;
24485;SDS011;13449;49.374;8.584;2023-02-24T12:25:17;37.03;;;13.85;;
24485;SDS011;13449;49.374;8.584;2023-02-24T12:30:44;31.95;;;14.20;;
24485;SDS011;13449;49.374;8.584;2023-02-24T12:36:12;35.10;;;13.43;;
24485;SDS011;13449;49.374;8.584;2023-02-24T12:44:04;34.33;;;12.52;;
24485;SDS011;13449;49.374;8.584;2023-02-24T12:46:42;27.75;;;11.13;;
24485;SDS011;13449;49.374;8.584;2023-02-24T12:54:44;33.00;;;13.48;;
24485;SDS011;13449;49.374;8.584;2023-02-24T12:57:22;30.58;;;11.75;;
24485;SDS011;13449;49.374;8.584;2023-02-24T12:59:56;30.17;;;12.32;;
24485;SDS011;13449;49.374;8.584;2023-02-24T13:02:48;51.90;;;19.92;;
24485;SDS011;13449;49.374;8.584;2023-02-24T13:05:32;26.00;;;11.13;;
24485;SDS011;13449;49.374;8.584;2023-02-24T13:08:21;25.40;;;10.18;;
24485;SDS011;13449;49.374;8.584;2023-02-24T13:11:16;25.05;;;9.60;;
24485;SDS011;13449;49.374;8.584;2023-02-24T13:13:58;24.63;;;10.18;;
24485;SDS011;13449;49.374;8.584;2023-02-24T13:16:41;28.95;;;10.20;;
24485;SDS011;13449;49.374;8.584;2023-02-24T13:19:27;27.20;;;9.57;;
24485;SDS011;13449;49.374;8.584;2023-02-24T13:21:55;21.80;;;9.85;;
24485;SDS011;13449;49.374;8.584;2023-02-24T13:24:31;21.83;;;9.32;;
24485;SDS011;13449;49.374;8.584;2023-02-24T13:27:06;37.97;;;11.32;;
24485;SDS011;13449;49.374;8.584;2023-02-24T13:29:57;32.88;;;12.23;;
24485;SDS011;13449;49.374;8.584;2023-02-24T13:32:57;29.98;;;12.02;;
24485;SDS011;13449;49.374;8.584;2023-02-24T13:35:35;33.05;;;11.05;;
24485;SDS011;13449;49.374;8.584;2023-02-24T13:38:36;24.92;;;11.68;;
24485;SDS011;13449;49.374;8.584;2023-02-24T13:41:08;28.88;;;11.23;;
24485;SDS011;13449;49.374;8.584;2023-02-24T13:44:03;26.80;;;11.32;;
24485;SDS011;13449;49.374;8.584;2023-02-24T13:46:52;30.63;;;11.27;;
24485;SDS011;13449;49.374;8.584;2023-02-24T13:57:59;21.05;;;9.70;;
24485;SDS011;13449;49.374;8.584;2023-02-24T14:03:23;23.85;;;9.05;;
24485;SDS011;13449;49.374;8.584;2023-02-24T14:05:51;25.98;;;9.38;;
24485;SDS011;13449;49.374;8.584;2023-02-24T14:11:06;18.73;;;8.35;;
24485;SDS011;13449;49.374;8.584;2023-02-24T14:13:52;21.02;;;7.82;;
24485;SDS011;13449;49.374;8.584;2023-02-24T14:16:31;22.13;;;7.90;;
24485;SDS011;13449;49.374;8.584;2023-02-24T14:19:01;21.20;;;8.32;;
24485;SDS011;13449;49.374;8.584;2023-02-24T14:21:30;18.63;;;8.00;;
24485;SDS011;13449;49.374;8.584;2023-02-24T14:24:00;19.97;;;8.23;;
24485;SDS011;13449;49.374;8.584;2023-02-24T14:26:33;28.45;;;8.07;;
24485;SDS011;13449;49.374;8.584;2023-02-24T14:29:07;23.10;;;8.05;;
24485;SDS011;13449;49.374;8.584;2023-02-24T14:31:34;25.17;;;8.55;;
24485;SDS011;13449;49.374;8.584;2023-02-24T14:34:06;22.80;;;9.32;;
24485;SDS011;13449;49.374;8.584;2023-02-24T14:36:42;22.52;;;8.27;;
24485;SDS011;13449;49.374;8.584;2023-02-24T14:39:17;20.55;;;8.43;;
24485;SDS011;13449;49.374;8.584;2023-02-24T14:41:48;23.08;;;9.70;;
24485;SDS011;13449;49.374;8.584;2023-02-24T14:44:20;14.95;;;7.25;;
24485;SDS011;13449;49.374;8.584;2023-02-24T14:46:52;14.80;;;6.57;;
24485;SDS011;13449;49.374;8.584;2023-02-24T14:49:28;18.88;;;8.10;;
24485;SDS011;13449;49.374;8.584;2023-02-24T14:51:59;21.02;;;7.85;;
24485;SDS011;13449;49.374;8.584;2023-02-24T14:54:36;20.38;;;8.82;;
24485;SDS011;13449;49.374;8.584;2023-02-24T14:57:16;15.20;;;7.05;;
24485;SDS011;13449;49.374;8.584;2023-02-24T14:59:48;24.55;;;7.43;;
24485;SDS011;13449;49.374;8.584;2023-02-24T15:02:18;27.98;;;11.07;;
24485;SDS011;13449;49.374;8.584;2023-02-24T15:04:51;25.55;;;10.07;;
24485;SDS011;13449;49.374;8.584;2023-02-24T15:07:25;26.77;;;11.25;;
24485;SDS011;13449;49.374;8.584;2023-02-24T15:09:54;26.85;;;10.40;;
24485;SDS011;13449;49.374;8.584;2023-02-24T15:12:26;29.65;;;11.93;;
24485;SDS011;13449;49.374;8.584;2023-02-24T15:17:37;23.83;;;10.50;;
24485;SDS011;13449;49.374;8.584;2023-02-24T15:22:51;31.50;;;10.32;;
24485;SDS011;13449;49.374;8.584;2023-02-24T15:25:19;25.67;;;10.55;;
24485;SDS011;13449;49.374;8.584;2023-02-24T15:27:59;23.42;;;7.63;;
24485;SDS011;13449;49.374;8.584;2023-02-24T15:30:33;19.90;;;7.18;;
24485;SDS011;13449;49.374;8.584;2023-02-24T15:33:23;15.38;;;6.95;;
24485;SDS011;13449;49.374;8.584;2023-02-24T15:35:55;10.07;;;4.28;;
24485;SDS011;13449;49.374;8.584;2023-02-24T15:38:31;8.57;;;4.30;;
24485;SDS011;13449;49.374;8.584;2023-02-24T15:41:01;9.68;;;4.25;;
24485;SDS011;13449;49.374;8.584;2023-02-24T15:43:30;9.13;;;3.88;;
24485;SDS011;13449;49.374;8.584;2023-02-24T15:45:57;11.25;;;4.38;;
24485;SDS011;13449;49.374;8.584;2023-02-24T15:48:24;15.80;;;3.83;;
24485;SDS011;13449;49.374;8.584;2023-02-24T15:50:57;8.15;;;3.80;;
24485;SDS011;13449;49.374;8.584;2023-02-24T15:53:30;13.05;;;4.40;;
24485;SDS011;13449;49.374;8.584;2023-02-24T15:55:59;11.02;;;4.70;;
24485;SDS011;13449;49.374;8.584;2023-02-24T15:58:25;13.05;;;4.95;;
24485;SDS011;13449;49.374;8.584;2023-02-24T16:00:55;8.88;;;3.63;;
24485;SDS011;13449;49.374;8.584;2023-02-24T16:03:22;16.17;;;4.25;;
24485;SDS011;13449;49.374;8.584;2023-02-24T16:05:48;20.88;;;4.28;;
24485;SDS011;13449;49.374;8.584;2023-02-24T16:08:16;10.63;;;3.83;;
24485;SDS011;13449;49.374;8.584;2023-02-24T16:10:44;8.40;;;3.65;;
24485;SDS011;13449;49.374;8.584;2023-02-24T16:13:16;6.55;;;3.60;;
24485;SDS011;13449;49.374;8.584;2023-02-24T16:15:45;9.30;;;4.85;;
24485;SDS011;13449;49.374;8.584;2023-02-24T16:18:15;6.55;;;3.38;;
24485;SDS011;13449;49.374;8.584;2023-02-24T16:20:47;8.20;;;3.63;;
24485;SDS011;13449;49.374;8.584;2023-02-24T16:23:20;14.25;;;3.25;;
24485;SDS011;13449;49.374;8.584;2023-02-24T16:25:48;5.82;;;3.15;;
24485;SDS011;13449;49.374;8.584;2023-02-24T16:28:17;10.65;;;3.25;;
24485;SDS011;13449;49.374;8.584;2023-02-24T16:30:45;6.97;;;3.50;;
24485;SDS011;13449;49.374;8.584;2023-02-24T16:33:15;7.78;;;3.83;;
24485;SDS011;13449;49.374;8.584;2023-02-24T16:35:43;10.57;;;3.90;;
24485;SDS011;13449;49.374;8.584;2023-02-24T16:38:14;6.82;;;3.10;;
24485;SDS011;13449;49.374;8.584;2023-02-24T16:40:42;5.72;;;3.42;;
24485;SDS011;13449;49.374;8.584;2023-02-24T16:43:10;9.90;;;3.72;;
24485;SDS011;13449;49.374;8.584;2023-02-24T16:45:38;11.05;;;6.45;;
24485;SDS011;13449;49.374;8.584;2023-02-24T16:48:13;10.13;;;5.72;;
24485;SDS011;13449;49.374;8.584;2023-02-24T16:50:44;11.02;;;5.03;;
24485;SDS011;13449;49.374;8.584;2023-02-24T16:53:12;9.30;;;4.70;;
24485;SDS011;13449;49.374;8.584;2023-02-24T16:55:45;11.80;;;6.15;;
24485;SDS011;13449;49.374;8.584;2023-02-24T16:58:12;24.73;;;4.03;;
24485;SDS011;13449;49.374;8.584;2023-02-24T17:00:42;7.00;;;4.15;;
24485;SDS011;13449;49.374;8.584;2023-02-24T17:03:14;17.35;;;6.60;;
24485;SDS011;13449;49.374;8.584;2023-02-24T17:05:41;15.88;;;8.65;;
24485;SDS011;13449;49.374;8.584;2023-02-24T17:08:09;50.85;;;23.60;;
24485;SDS011;13449;49.374;8.584;2023-02-24T17:10:36;35.03;;;19.40;;
24485;SDS011;13449;49.374;8.584;2023-02-24T17:13:05;22.80;;;8.77;;
24485;SDS011;13449;49.374;8.584;2023-02-24T17:15:32;11.07;;;4.45;;
24485;SDS011;13449;49.374;8.584;2023-02-24T17:18:01;7.03;;;3.83;;
24485;SDS011;13449;49.374;8.584;2023-02-24T17:20:28;8.85;;;4.32;;
24485;SDS011;13449;49.374;8.584;2023-02-24T17:22:54;10.70;;;4.18;;
24485;SDS011;13449;49.374;8.584;2023-02-24T17:25:22;7.95;;;3.38;;
24485;SDS011;13449;49.374;8.584;2023-02-24T17:27:51;7.72;;;4.07;;
24485;SDS011;13449;49.374;8.584;2023-02-24T17:30:20;7.03;;;3.70;;
24485;SDS011;13449;49.374;8.584;2023-02-24T17:32:49;10.82;;;4.43;;
24485;SDS011;13449;49.374;8.584;2023-02-24T17:35:16;12.50;;;4.72;;
24485;SDS011;13449;49.374;8.584;2023-02-24T17:37:45;10.57;;;4.35;;
24485;SDS011;13449;49.374;8.584;2023-02-24T17:40:12;8.93;;;4.50;;
24485;SDS011;13449;49.374;8.584;2023-02-24T17:42:39;8.60;;;4.47;;
24485;SDS011;13449;49.374;8.584;2023-02-24T17:45:06;7.25;;;3.88;;
24485;SDS011;13449;49.374;8.584;2023-02-24T17:47:34;7.15;;;3.20;;
24485;SDS011;13449;49.374;8.584;2023-02-24T17:50:01;8.57;;;3.83;;
24485;SDS011;13449;49.374;8.584;2023-02-24T17:52:29;6.60;;;3.45;;
24485;SDS011;13449;49.374;8.584;2023-02-24T17:54:56;10.00;;;4.15;;
24485;SDS011;13449;49.374;8.584;2023-02-24T17:57:23;9.20;;;3.67;;
24485;SDS011;13449;49.374;8.584;2023-02-24T17:59:52;9.32;;;4.43;;